aviador You're here:

KPIA Decoded Metar

PEORIA in IL, USA
Report Time2017-07-26 05:54:00
UTC Time2017-07-26 06:37:54
Flight Rules vfr VFR
Wind140° at 05 kt
W.Decomp.*RWY 13: 4.9 kt HW 0.8 kt RCW
RWY 22: 0.8 kt HW 4.9 kt LCW
W.Rank140° ranks 23
Current wind is below 140° avg. (6.5)
Visibility9999 m
Phenomena:N/A
Clouds:N/A
Expected CloudBase > 1,200 ft AGL from Temp-Dew spread
CeilingNone
Temp22°C (ISA +8)
Dew Point19°C (83% RH)
QNH1019 hPa
Density Alt1,736 ft
Elevation673 ft
Report Wrong Elevation
Raw Report
KPIA 260554Z 14005KT 10SM CLR 22/19 A3010 RMK AO2 SLP189 T02220194
10272 20222 402940172 55004=

Extra information for KPIA:More info

Metar Taf Metar & Taf Last 4 Metars F.Rules Stats Wind Profile Meteogram Temp Stats Airport Information Weather charts Add Link Nearby VenuesMetar ALERT Operation Metar Decoded Social comments

AIRNAV info for KPIA